Time;durP1;ratioP1;P1;durP2;ratioP2;P2;SDS_P1;SDS_P2;PMS_P1;PMS_P2;Temp;Humidity;BMP_temperature;BMP_pressure;BME280_temperature;BME280_humidity;BME280_pressure;Samples;Min_cycle;Max_cycle;Signal;HPM_P1;HPM_P2
2022/04/06 00:00:44;;;;;;;16.77;12.20;;;8.90;99.90;;;;;;5020151;28;20451;-80
2022/04/06 00:03:12;;;;;;;17.20;12.63;;;8.80;99.90;;;;;;5020065;28;20416;-80
2022/04/06 00:05:39;;;;;;;13.90;10.97;;;8.90;99.90;;;;;;5020077;28;20403;-80
2022/04/06 00:08:06;;;;;;;19.83;12.90;;;8.80;99.90;;;;;;5018520;28;20413;-80
2022/04/06 00:10:33;;;;;;;16.53;11.33;;;8.80;99.90;;;;;;5000849;28;20458;-80
2022/04/06 00:12:59;;;;;;;15.10;10.73;;;8.80;99.90;;;;;;5001192;28;20476;-81
2022/04/06 00:15:27;;;;;;;16.50;12.50;;;8.80;99.90;;;;;;5000938;28;20481;-81
2022/04/06 00:17:53;;;;;;;13.23;11.13;;;8.80;99.90;;;;;;5001524;28;20457;-81
2022/04/06 00:20:22;;;;;;;16.50;12.93;;;8.80;99.90;;;;;;5005695;28;20822;-81
2022/04/06 00:22:49;;;;;;;13.50;9.50;;;8.80;99.90;;;;;;5015011;28;20441;-80
2022/04/06 00:25:15;;;;;;;18.03;11.37;;;8.80;99.90;;;;;;5010164;28;20435;-80
2022/04/06 00:27:42;;;;;;;15.70;11.67;;;8.80;99.90;;;;;;5015031;28;20486;-80
2022/04/06 00:30:09;;;;;;;12.87;9.60;;;8.80;99.90;;;;;;5012499;28;20424;-80
2022/04/06 00:32:36;;;;;;;10.10;9.00;;;8.80;99.90;;;;;;5002811;28;20425;-80
2022/04/06 00:37:48;;;;;;;15.40;10.20;;;8.80;99.90;;;;;;4999051;28;20454;-81
2022/04/06 00:40:15;;;;;;;14.80;10.87;;;8.80;99.90;;;;;;5000194;28;20461;-80
2022/04/06 00:42:42;;;;;;;13.70;9.77;;;8.80;99.90;;;;;;5001557;28;20487;-80
2022/04/06 00:45:09;;;;;;;20.70;16.20;;;8.80;99.90;;;;;;5001746;28;20429;-81
2022/04/06 00:47:36;;;;;;;15.83;11.03;;;8.80;99.90;;;;;;5000508;28;20475;-80
2022/04/06 00:50:03;;;;;;;16.87;12.57;;;8.80;99.90;;;;;;5002363;28;20837;-81
2022/04/06 00:52:31;;;;;;;16.70;12.27;;;8.90;99.90;;;;;;5004717;28;20449;-80
2022/04/06 00:54:59;;;;;;;20.10;13.97;;;8.90;99.90;;;;;;5005269;28;20607;-79
2022/04/06 00:57:27;;;;;;;15.33;11.43;;;8.90;99.90;;;;;;5004359;28;20467;-81
2022/04/06 00:59:56;;;;;;;16.33;12.90;;;8.90;99.90;;;;;;5007952;28;20429;-80
2022/04/06 01:02:23;;;;;;;17.33;12.70;;;8.90;99.90;;;;;;5008759;28;20790;-80
2022/04/06 01:04:49;;;;;;;16.13;11.10;;;8.90;99.90;;;;;;5008800;28;20451;-80
2022/04/06 01:07:16;;;;;;;16.73;11.93;;;8.90;99.90;;;;;;5012768;28;20468;-80
2022/04/06 01:09:43;;;;;;;15.80;11.70;;;8.90;99.90;;;;;;5011824;28;20482;-80
2022/04/06 01:12:11;;;;;;;16.27;12.30;;;8.90;99.90;;;;;;5010434;28;20458;-80
2022/04/06 01:14:39;;;;;;;17.87;11.50;;;8.90;99.90;;;;;;5009207;28;20516;-80
2022/04/06 01:17:08;;;;;;;18.53;13.43;;;8.90;99.90;;;;;;5012415;28;20467;-80
2022/04/06 01:19:35;;;;;;;16.53;12.97;;;8.90;99.90;;;;;;5012130;28;20803;-80
2022/04/06 01:22:07;;;;;;;16.57;12.97;;;8.90;99.90;;;;;;5010994;28;20424;-80
2022/04/06 01:24:34;;;;;;;15.83;11.40;;;8.60;99.90;;;;;;5010398;28;20454;-81
2022/04/06 01:27:02;;;;;;;22.20;13.90;;;8.90;99.90;;;;;;5006234;28;20487;-81
2022/04/06 01:29:28;;;;;;;18.33;11.70;;;8.90;99.90;;;;;;5004652;28;20455;-80
2022/04/06 01:31:55;;;;;;;19.07;14.27;;;8.90;99.90;;;;;;5004737;28;20474;-81
2022/04/06 01:34:22;;;;;;;19.10;13.10;;;8.90;99.90;;;;;;5003101;28;20511;-81
2022/04/06 01:36:49;;;;;;;18.63;12.27;;;8.80;99.90;;;;;;5001733;28;20877;-82
2022/04/06 01:39:19;;;;;;;18.00;12.27;;;8.90;99.90;;;;;;5002650;28;20429;-82
2022/04/06 01:41:51;;;;;;;17.30;12.80;;;8.90;99.90;;;;;;5002931;28;20783;-81
2022/04/06 01:44:18;;;;;;;20.47;14.53;;;8.90;99.90;;;;;;5004676;28;20453;-81
2022/04/06 01:46:46;;;;;;;19.87;13.57;;;8.70;99.90;;;;;;5003861;28;20506;-82
2022/04/06 01:52:15;;;;;;;19.67;13.50;;;8.80;99.90;;;;;;4968216;28;20422;-81
2022/04/06 01:54:45;;;;;;;19.80;13.13;;;8.90;99.90;;;;;;5004870;28;20501;-82
2022/04/06 01:57:12;;;;;;;17.60;12.97;;;8.80;99.90;;;;;;5005895;28;20456;-81
2022/04/06 01:59:39;;;;;;;21.90;13.50;;;9.00;99.90;;;;;;5007500;28;20449;-82
2022/04/06 02:02:06;;;;;;;18.33;14.63;;;8.80;99.90;;;;;;5007940;28;20456;-82
2022/04/06 02:04:33;;;;;;;15.80;12.90;;;8.90;99.90;;;;;;5007973;28;20445;-82
2022/04/06 02:07:00;;;;;;;16.60;13.57;;;8.90;99.90;;;;;;5006547;28;20475;-83
2022/04/06 02:09:26;;;;;;;18.63;11.40;;;8.90;99.90;;;;;;5004692;28;20455;-82
2022/04/06 02:11:58;;;;;;;18.10;13.23;;;8.80;99.90;;;;;;5004184;28;20449;-81
2022/04/06 02:14:25;;;;;;;17.43;13.17;;;9.00;99.90;;;;;;5006183;28;20470;-81
2022/04/06 02:16:52;;;;;;;17.57;12.40;;;8.90;99.90;;;;;;5007531;28;20485;-81
2022/04/06 02:19:18;;;;;;;19.90;13.10;;;8.90;99.90;;;;;;5013458;28;20454;-82
2022/04/06 02:21:45;;;;;;;20.97;14.40;;;9.00;99.90;;;;;;5016862;28;20451;-81
2022/04/06 02:24:12;;;;;;;16.90;13.07;;;8.80;99.90;;;;;;5016859;28;20441;-81
2022/04/06 02:26:39;;;;;;;20.37;14.47;;;8.90;99.90;;;;;;5014666;28;20491;-81
2022/04/06 02:29:07;;;;;;;18.97;13.17;;;8.90;99.90;;;;;;5013263;28;20430;-82
2022/04/06 02:31:34;;;;;;;19.80;14.20;;;8.80;99.90;;;;;;5013061;28;20453;-81
2022/04/06 02:34:01;;;;;;;18.03;12.43;;;8.90;99.90;;;;;;5012159;28;20484;-83
2022/04/06 02:36:27;;;;;;;15.23;11.80;;;8.80;99.90;;;;;;5014507;28;20454;-81
2022/04/06 02:38:54;;;;;;;17.00;14.07;;;8.80;99.90;;;;;;5015579;28;20433;-81
2022/04/06 02:41:21;;;;;;;16.17;11.33;;;8.90;99.90;;;;;;5013021;28;20440;-81
2022/04/06 02:43:48;;;;;;;18.57;14.60;;;8.90;99.90;;;;;;5008189;28;20452;-81
2022/04/06 02:46:16;;;;;;;16.40;13.00;;;8.90;99.90;;;;;;5009813;28;20478;-80
2022/04/06 02:48:42;;;;;;;19.13;13.60;;;8.90;99.90;;;;;;5011570;28;20455;-81
2022/04/06 02:51:09;;;;;;;16.20;12.77;;;9.00;99.90;;;;;;5008045;28;20430;-82
2022/04/06 02:53:36;;;;;;;17.27;12.90;;;8.80;99.90;;;;;;5007597;28;20474;-82
2022/04/06 02:56:03;;;;;;;16.87;12.50;;;8.90;99.90;;;;;;5006138;28;20455;-82
2022/04/06 02:58:30;;;;;;;17.47;12.53;;;8.80;99.90;;;;;;5010007;28;20472;-81
2022/04/06 03:00:58;;;;;;;17.83;12.27;;;9.00;99.90;;;;;;5018329;28;20451;-82
2022/04/06 03:03:27;;;;;;;17.20;11.90;;;8.90;99.90;;;;;;5014403;28;20515;-80
2022/04/06 03:05:53;;;;;;;15.83;12.80;;;9.20;99.90;;;;;;5012296;28;20439;-80
2022/04/06 03:08:20;;;;;;;17.57;11.73;;;8.90;99.90;;;;;;5011354;28;20589;-82
2022/04/06 03:10:47;;;;;;;17.87;12.23;;;9.00;99.90;;;;;;5005851;28;20463;-83
2022/04/06 03:13:13;;;;;;;14.93;11.63;;;8.90;99.90;;;;;;5015597;28;20844;-82
2022/04/06 03:15:40;;;;;;;15.67;11.93;;;9.00;99.90;;;;;;5014340;28;20494;-82
2022/04/06 03:18:06;;;;;;;14.97;11.30;;;9.00;99.90;;;;;;5012086;28;20556;-82
2022/04/06 03:20:35;;;;;;;15.73;12.83;;;9.00;99.90;;;;;;5008598;28;20415;-82
2022/04/06 03:23:15;;;;;;;17.67;11.97;;;9.10;99.90;;;;;;5011797;28;20511;-82
2022/04/06 03:25:41;;;;;;;13.87;10.40;;;9.00;99.90;;;;;;5008767;28;20440;-82
2022/04/06 03:28:08;;;;;;;15.80;11.50;;;9.00;99.90;;;;;;5009738;28;20470;-82
2022/04/06 03:30:35;;;;;;;17.33;11.03;;;9.00;99.90;;;;;;5009551;28;20446;-82
2022/04/06 03:33:01;;;;;;;12.90;11.03;;;9.00;99.90;;;;;;5008115;28;20439;-81
2022/04/06 03:35:29;;;;;;;16.43;10.80;;;9.00;99.90;;;;;;5006304;28;20466;-82
2022/04/06 03:37:56;;;;;;;15.07;11.50;;;9.20;99.90;;;;;;5001923;28;20468;-81
2022/04/06 03:40:23;;;;;;;13.00;9.83;;;9.00;99.90;;;;;;5001384;28;20448;-82
2022/04/06 03:42:50;;;;;;;12.77;10.23;;;9.00;99.90;;;;;;5003630;28;20429;-82
2022/04/06 03:45:16;;;;;;;13.00;10.37;;;9.10;99.90;;;;;;5004044;28;20510;-82
2022/04/06 03:47:46;;;;;;;15.03;10.17;;;9.00;99.90;;;;;;5014213;28;20460;-81
2022/04/06 03:50:14;;;;;;;13.03;10.63;;;9.00;99.90;;;;;;5017135;28;20433;-81
2022/04/06 03:52:40;;;;;;;15.47;11.33;;;8.90;99.90;;;;;;5015345;28;20458;-81
2022/04/06 03:55:10;;;;;;;14.00;9.20;;;8.90;99.90;;;;;;5018162;28;20491;-81
2022/04/06 03:57:38;;;;;;;11.50;9.77;;;8.90;99.90;;;;;;5017379;28;21014;-81
2022/04/06 04:00:09;;;;;;;13.33;10.30;;;8.90;99.90;;;;;;5017902;28;20475;-81
2022/04/06 04:02:36;;;;;;;14.30;10.07;;;8.90;99.90;;;;;;5016062;28;20444;-82
2022/04/06 04:05:04;;;;;;;13.27;9.40;;;8.90;99.90;;;;;;5014993;28;20471;-82
2022/04/06 04:07:31;;;;;;;14.10;9.00;;;8.90;99.90;;;;;;5013784;28;20468;-80
2022/04/06 04:10:01;;;;;;;12.57;9.80;;;8.90;99.90;;;;;;5009300;28;20480;-80
2022/04/06 04:12:29;;;;;;;10.23;9.03;;;8.90;99.90;;;;;;5007439;28;20451;-81
2022/04/06 04:14:56;;;;;;;16.97;10.57;;;8.80;99.90;;;;;;5006579;28;20502;-81
2022/04/06 04:17:22;;;;;;;13.00;10.20;;;8.80;99.90;;;;;;5006483;28;20463;-81
2022/04/06 04:19:52;;;;;;;16.20;9.77;;;8.80;99.90;;;;;;5009151;28;20462;-82
2022/04/06 04:22:19;;;;;;;16.17;9.00;;;8.90;99.90;;;;;;5007528;28;20438;-82
2022/04/06 04:24:48;;;;;;;12.13;9.33;;;8.90;99.90;;;;;;5007162;28;20447;-82
2022/04/06 04:27:15;;;;;;;13.57;9.10;;;8.90;99.90;;;;;;5006087;28;20489;-81
2022/04/06 04:29:43;;;;;;;12.73;10.30;;;9.00;99.90;;;;;;5006148;28;20450;-82
2022/04/06 04:32:11;;;;;;;16.60;9.60;;;8.90;99.90;;;;;;5005395;28;20453;-82
2022/04/06 04:34:38;;;;;;;13.70;11.67;;;9.00;99.90;;;;;;5005887;28;20482;-82
2022/04/06 04:37:05;;;;;;;13.23;9.83;;;8.90;99.90;;;;;;5004142;28;20459;-82
2022/04/06 04:39:32;;;;;;;15.83;10.80;;;8.90;99.90;;;;;;5005384;28;20490;-83
2022/04/06 04:41:58;;;;;;;15.63;10.97;;;8.90;99.90;;;;;;5005065;28;20446;-82
2022/04/06 04:44:25;;;;;;;17.80;11.13;;;9.00;99.90;;;;;;5005649;28;20455;-82
2022/04/06 04:46:54;;;;;;;15.67;11.33;;;8.90;99.90;;;;;;5006043;28;20840;-82
2022/04/06 04:49:21;;;;;;;16.90;11.67;;;8.80;99.90;;;;;;5005125;28;20487;-82
2022/04/06 04:51:48;;;;;;;14.90;10.60;;;8.90;99.90;;;;;;5005500;28;20455;-81
2022/04/06 04:54:16;;;;;;;18.23;11.83;;;8.80;99.90;;;;;;5004806;28;20516;-82
2022/04/06 04:56:43;;;;;;;16.80;10.60;;;8.90;99.90;;;;;;5011402;28;20441;-80
2022/04/06 04:59:09;;;;;;;17.60;10.63;;;8.90;99.90;;;;;;5014063;28;20527;-80
2022/04/06 05:01:42;;;;;;;16.33;12.20;;;8.90;99.90;;;;;;5013535;28;20498;-81
2022/04/06 05:04:11;;;;;;;15.47;11.30;;;8.80;99.90;;;;;;5014522;28;20457;-81
2022/04/06 05:06:42;;;;;;;21.97;11.77;;;8.90;99.90;;;;;;5015507;28;20474;-82
2022/04/06 05:09:11;;;;;;;16.50;11.67;;;8.60;99.90;;;;;;5015487;28;20432;-80
2022/04/06 05:11:38;;;;;;;18.30;12.23;;;8.80;99.90;;;;;;5015004;28;20505;-80
2022/04/06 05:14:05;;;;;;;16.83;11.60;;;8.50;99.90;;;;;;5012634;28;20452;-80
2022/04/06 05:16:32;;;;;;;18.60;10.47;;;8.90;99.90;;;;;;5011440;28;20452;-82
2022/04/06 05:19:01;;;;;;;20.87;12.70;;;8.90;99.90;;;;;;5008639;28;20456;-81
2022/04/06 05:21:29;;;;;;;15.77;11.13;;;8.90;99.90;;;;;;5011139;28;20463;-81
2022/04/06 05:23:57;;;;;;;17.20;11.40;;;8.80;99.90;;;;;;5010355;28;20410;-81
2022/04/06 05:26:23;;;;;;;19.00;11.30;;;8.90;99.90;;;;;;5009336;28;20506;-82
2022/04/06 05:28:50;;;;;;;16.80;11.90;;;9.10;99.90;;;;;;5007041;28;20469;-81
2022/04/06 05:31:18;;;;;;;15.90;11.80;;;8.80;99.90;;;;;;5004552;28;20439;-81
2022/04/06 05:33:45;;;;;;;14.37;11.70;;;8.90;99.90;;;;;;5005992;28;20436;-81
2022/04/06 05:36:12;;;;;;;19.13;12.10;;;8.60;99.90;;;;;;5016273;28;20486;-80
2022/04/06 05:38:41;;;;;;;17.60;12.27;;;8.60;99.90;;;;;;5016349;28;20508;-82
2022/04/06 05:41:11;;;;;;;15.63;12.00;;;8.90;99.90;;;;;;5020891;28;20443;-81
2022/04/06 05:44:03;;;;;;;14.50;11.80;;;9.00;99.90;;;;;;5021028;28;20413;-81
2022/04/06 05:47:04;;;;;;;17.50;12.30;;;9.10;99.90;;;;;;5016255;28;20435;-81
2022/04/06 05:49:44;;;;;;;13.90;10.87;;;9.10;99.90;;;;;;5019605;28;20474;-81
2022/04/06 05:52:35;;;;;;;16.60;11.80;;;9.10;99.90;;;;;;5021138;28;20510;-81
2022/04/06 05:55:33;;;;;;;14.30;11.03;;;9.10;99.90;;;;;;5021814;28;20462;-81
2022/04/06 05:58:43;;;;;;;18.43;9.83;;;9.10;99.90;;;;;;5020179;28;20483;-81
2022/04/06 06:01:14;;;;;;;15.23;11.33;;;;;;;;;;5017284;28;20440;-81
2022/04/06 06:04:01;;;;;;;16.03;11.83;;;9.10;99.90;;;;;;5021761;28;20416;-81
2022/04/06 06:09:36;;;;;;;16.13;11.43;;;9.20;99.90;;;;;;5019073;28;20438;-81
2022/04/06 06:12:13;;;;;;;19.83;13.27;;;9.20;99.90;;;;;;5019078;28;20439;-81
2022/04/06 06:20:41;;;;;;;16.67;11.33;;;9.30;99.90;;;;;;5015760;28;20417;-81
2022/04/06 06:23:18;;;;;;;15.80;12.00;;;9.10;99.90;;;;;;5019467;28;20429;-81
2022/04/06 06:32:30;;;;;;;27.80;15.23;;;12.50;99.90;;;;;;5007780;28;20453;-83
2022/04/06 06:34:57;;;;;;;22.47;15.03;;;;;;;;;;5004587;28;20539;-82
2022/04/06 06:37:24;;;;;;;31.10;15.67;;;;;;;;;;5003712;28;20450;-82
2022/04/06 06:39:54;;;;;;;22.60;16.10;;;;;;;;;;5003393;28;20475;-82
2022/04/06 06:42:24;;;;;;;23.03;13.30;;;;;;;;;;5006388;28;20435;-82
2022/04/06 06:44:59;;;;;;;24.90;15.53;;;9.40;99.90;;;;;;5003977;28;20416;-82
2022/04/06 06:47:37;;;;;;;34.07;17.20;;;9.40;99.90;;;;;;5002938;28;20475;-83
2022/04/06 06:50:07;;;;;;;23.20;15.33;;;9.40;99.90;;;;;;5007168;28;20429;-83
2022/04/06 06:52:47;;;;;;;42.60;28.30;;;9.40;99.90;;;;;;5004980;28;20456;-83
2022/04/06 06:55:15;;;;;;;26.47;15.43;;;;;;;;;;5003057;28;20508;-82
2022/04/06 06:57:42;;;;;;;23.70;15.67;;;;;;;;;;5003386;28;20506;-82
2022/04/06 07:00:11;;;;;;;25.20;15.53;;;9.50;99.90;;;;;;5004730;28;20448;-83
2022/04/06 07:02:41;;;;;;;23.93;13.33;;;9.50;99.90;;;;;;5002488;28;20444;-82
2022/04/06 07:05:08;;;;;;;31.47;19.63;;;9.50;99.90;;;;;;5004953;28;20440;-82
2022/04/06 07:07:48;;;;;;;26.40;15.13;;;9.50;99.90;;;;;;5004441;28;20475;-82
2022/04/06 07:16:14;;;;;;;26.10;16.60;;;9.80;99.90;;;;;;5007003;28;20484;-83
2022/04/06 07:19:01;;;;;;;29.10;17.07;;;13.40;99.90;;;;;;5013648;28;20444;-81
2022/04/06 07:21:40;;;;;;;26.47;16.20;;;7.80;99.90;;;;;;5013064;28;20972;-82
2022/04/06 07:24:16;;;;;;;26.57;16.30;;;;;;;;;;5005048;28;20420;-83
2022/04/06 07:27:02;;;;;;;25.83;18.00;;;10.10;99.90;;;;;;5003221;28;20460;-84
2022/04/06 07:46:56;;;;;;;22.30;13.87;;;10.30;99.90;;;;;;4978062;28;20461;-81
2022/04/06 07:50:37;;;;;;;23.30;13.33;;;10.40;99.90;;;;;;4976970;28;20517;-82
2022/04/06 07:56:58;;;;;;;19.73;12.93;;;10.90;99.90;;;;;;4908873;28;20984;-83
2022/04/06 08:03:19;;;;;;;18.13;10.87;;;10.80;99.90;;;;;;4983712;28;20523;-82
2022/04/06 08:06:16;;;;;;;14.67;10.70;;;11.20;99.90;;;;;;5014486;28;20436;-82
2022/04/06 08:12:10;;;;;;;14.50;10.33;;;11.40;99.90;;;;;;5008717;28;20456;-81
2022/04/06 08:14:50;;;;;;;13.53;10.10;;;11.70;99.90;;;;;;5009218;28;20455;-81
2022/04/06 08:17:23;;;;;;;12.70;10.17;;;;;;;;;;5008876;28;20456;-80
2022/04/06 08:20:28;;;;;;;12.03;10.40;;;11.70;99.90;;;;;;5010368;28;20432;-81
2022/04/06 08:22:56;;;;;;;16.70;9.40;;;11.60;99.90;;;;;;5012186;28;20432;-81
2022/04/06 08:25:29;;;;;;;15.07;9.37;;;11.60;99.90;;;;;;5011128;28;20444;-82
2022/04/06 08:31:18;;;;;;;11.70;8.67;;;;;;;;;;4925199;29;20428;-81
2022/04/06 08:33:45;;;;;;;13.30;8.80;;;11.50;99.90;;;;;;4921827;29;20440;-80
2022/04/06 08:36:16;;;;;;;15.37;8.90;;;11.20;99.90;;;;;;4955184;28;20538;-79
2022/04/06 08:38:43;;;;;;;11.70;7.27;;;11.70;99.90;;;;;;5003834;28;20429;-79
2022/04/06 08:41:10;;;;;;;10.93;8.40;;;11.70;99.90;;;;;;5003156;28;20456;-81
2022/04/06 08:43:57;;;;;;;10.77;7.63;;;11.70;99.90;;;;;;5002229;28;20487;-82
2022/04/06 08:46:25;;;;;;;10.83;7.33;;;11.90;99.90;;;;;;5000575;28;20461;-80
2022/04/06 08:48:53;;;;;;;13.73;7.30;;;11.30;99.90;;;;;;5002928;28;20443;-81
2022/04/06 08:51:22;;;;;;;16.27;10.07;;;11.50;99.90;;;;;;5003432;28;20456;-81
2022/04/06 08:53:49;;;;;;;8.97;7.83;;;11.50;99.90;;;;;;5003375;28;20448;-80
2022/04/06 08:56:22;;;;;;;10.63;7.97;;;11.40;99.90;;;;;;5003455;28;20488;-80
2022/04/06 08:58:48;;;;;;;9.60;7.07;;;11.10;99.90;;;;;;5005555;28;20440;-80
2022/04/06 09:01:16;;;;;;;12.77;7.17;;;11.30;99.90;;;;;;5008269;28;20448;-80
2022/04/06 09:03:43;;;;;;;10.33;7.20;;;10.90;99.90;;;;;;5005510;28;20479;-80
2022/04/06 09:06:11;;;;;;;14.73;8.07;;;11.50;99.90;;;;;;5005974;28;20469;-80
2022/04/06 09:08:46;;;;;;;8.67;7.10;;;11.50;99.90;;;;;;5002562;28;20456;-82
2022/04/06 09:11:17;;;;;;;14.50;7.27;;;11.60;99.90;;;;;;5001434;28;20411;-81
2022/04/06 09:14:06;;;;;;;12.17;7.73;;;11.70;99.90;;;;;;4999517;28;20407;-81
2022/04/06 09:17:04;;;;;;;12.80;7.80;;;11.80;99.90;;;;;;4998491;28;20519;-81
2022/04/06 09:19:31;;;;;;;10.60;6.87;;;;;;;;;;5000882;28;20409;-81
2022/04/06 09:21:58;;;;;;;13.03;8.20;;;;;;;;;;5003711;28;20447;-80
2022/04/06 09:24:28;;;;;;;7.27;6.60;;;11.90;99.90;;;;;;5002135;28;20456;-81
2022/04/06 09:26:58;;;;;;;11.20;7.43;;;11.90;99.90;;;;;;4998504;28;20542;-81
2022/04/06 09:29:25;;;;;;;11.33;8.57;;;11.90;99.90;;;;;;5002597;28;20584;-80
2022/04/06 09:31:52;;;;;;;15.80;8.10;;;11.90;99.90;;;;;;4999414;28;20444;-80
2022/04/06 09:34:21;;;;;;;17.40;8.33;;;11.90;99.90;;;;;;5001192;28;20428;-80
2022/04/06 09:36:50;;;;;;;9.67;7.10;;;12.10;99.90;;;;;;5000947;28;20498;-80
2022/04/06 09:39:17;;;;;;;12.13;7.63;;;12.10;99.90;;;;;;4999650;28;21007;-81
2022/04/06 09:42:01;;;;;;;11.30;7.77;;;12.10;1.00;;;;;;4997565;28;20955;-81
2022/04/06 09:50:09;;;;;;;11.60;6.27;;;12.50;1.00;;;;;;5002202;28;20403;-81
2022/04/06 09:52:36;;;;;;;14.00;8.80;;;12.40;1.00;;;;;;4999219;28;20437;-80
2022/04/06 09:55:06;;;;;;;11.63;7.37;;;12.30;1.00;;;;;;4999214;28;20475;-80
2022/04/06 09:57:40;;;;;;;14.13;9.10;;;12.20;1.00;;;;;;4998047;28;20488;-81
2022/04/06 10:00:12;;;;;;;18.20;9.30;;;12.10;1.00;;;;;;5001248;28;20433;-81
2022/04/06 10:02:41;;;;;;;14.10;8.63;;;12.00;1.00;;;;;;4998963;28;20503;-80
2022/04/06 10:05:12;;;;;;;10.23;7.40;;;12.00;1.00;;;;;;4999041;28;20453;-80
2022/04/06 10:07:39;;;;;;;8.97;6.87;;;12.10;1.00;;;;;;4998213;28;20519;-81
2022/04/06 10:10:07;;;;;;;10.40;7.43;;;12.10;1.00;;;;;;4997894;28;20811;-81
2022/04/06 10:12:38;;;;;;;9.70;7.27;;;12.10;1.00;;;;;;4997788;28;20459;-83
2022/04/06 10:15:09;;;;;;;14.77;8.10;;;12.20;1.00;;;;;;4997340;28;20429;-80
2022/04/06 10:17:39;;;;;;;10.90;7.77;;;12.20;1.00;;;;;;5000331;28;20491;-81
2022/04/06 10:20:16;;;;;;;14.25;8.13;;;12.20;1.00;;;;;;5006768;28;20465;-81
2022/04/06 10:22:54;;;;;;;13.30;7.20;;;12.20;99.90;;;;;;5009801;28;20225;-80
2022/04/06 10:25:29;;;;;;;19.67;8.93;;;12.20;99.90;;;;;;5010216;28;20460;-80
2022/04/06 10:27:58;;;;;;;12.73;9.37;;;12.10;1.00;;;;;;5010519;28;20499;-81
2022/04/06 10:30:29;;;;;;;11.60;7.20;;;12.10;99.90;;;;;;5008746;28;20448;-80
2022/04/06 10:32:58;;;;;;;11.63;7.10;;;12.10;99.90;;;;;;5009566;28;20512;-81
2022/04/06 10:35:27;;;;;;;12.53;7.13;;;12.00;99.90;;;;;;5008731;28;20817;-81
2022/04/06 10:38:14;;;;;;;11.10;7.17;;;12.00;1.00;;;;;;5001765;28;20461;-81
2022/04/06 10:41:00;;;;;;;9.70;7.43;;;12.00;99.90;;;;;;5002068;28;20432;-80
2022/04/06 10:43:50;;;;;;;12.10;7.50;;;12.10;99.90;;;;;;5004147;28;20425;-81
2022/04/06 10:46:28;;;;;;;10.10;6.63;;;12.10;98.30;;;;;;5005968;28;20468;-80
2022/04/06 10:48:58;;;;;;;8.83;7.93;;;12.20;96.70;;;;;;5002377;28;20425;-80
2022/04/06 10:51:30;;;;;;;10.30;6.80;;;12.40;99.90;;;;;;5000239;28;20484;-80
2022/04/06 10:53:57;;;;;;;11.33;7.40;;;12.50;99.90;;;;;;5001028;28;20444;-80
2022/04/06 10:56:24;;;;;;;8.83;5.70;;;12.70;99.90;;;;;;5000105;28;20538;-80
2022/04/06 10:59:10;;;;;;;10.63;6.53;;;12.70;1.00;;;;;;4999552;28;20503;-80
2022/04/06 11:01:38;;;;;;;9.80;6.23;;;12.70;1.00;;;;;;4999565;28;20452;-81
2022/04/06 11:04:08;;;;;;;11.47;6.50;;;12.80;99.90;;;;;;5002721;28;20452;-80
2022/04/06 11:07:03;;;;;;;15.00;6.53;;;12.70;99.90;;;;;;5006115;28;20463;-81
2022/04/06 11:12:17;;;;;;;10.30;6.43;;;12.90;1.00;;;;;;5002254;28;20440;-80
2022/04/06 11:14:47;;;;;;;8.13;6.90;;;12.70;28.40;;;;;;5004491;28;20452;-80
2022/04/06 11:17:37;;;;;;;7.97;5.80;;;12.50;99.90;;;;;;5007420;28;20488;-80
2022/04/06 11:20:06;;;;;;;8.07;6.53;;;12.40;99.90;;;;;;5008541;28;20439;-80
2022/04/06 11:22:33;;;;;;;10.80;6.20;;;12.40;99.90;;;;;;5006474;28;20444;-81
2022/04/06 11:25:00;;;;;;;7.80;6.33;;;12.50;1.00;;;;;;5006677;28;20499;-81
2022/04/06 11:27:28;;;;;;;9.67;6.60;;;12.30;99.90;;;;;;5005228;28;20491;-81
2022/04/06 11:30:02;;;;;;;11.00;6.43;;;12.30;1.00;;;;;;5005454;28;20452;-80
2022/04/06 11:32:29;;;;;;;11.90;6.90;;;12.20;1.00;;;;;;5004452;28;20456;-81
2022/04/06 11:35:03;;;;;;;12.70;6.83;;;12.10;1.00;;;;;;5012183;28;20525;-79
2022/04/06 11:37:29;;;;;;;10.87;7.67;;;12.10;1.00;;;;;;5010379;28;20487;-80
2022/04/06 11:39:58;;;;;;;10.45;6.80;;;11.80;99.90;;;;;;5004312;28;20889;-81
2022/04/06 11:42:25;;;;;;;8.97;7.20;;;11.90;8.30;;;;;;5000809;28;20217;-79
2022/04/06 11:44:51;;;;;;;14.53;6.80;;;11.90;1.00;;;;;;5003788;28;20452;-80
2022/04/06 11:47:31;;;;;;;10.27;6.87;;;11.90;99.90;;;;;;5005345;28;20941;-79
2022/04/06 11:49:58;;;;;;;9.23;6.10;;;11.90;27.70;;;;;;5004722;28;20403;-81
2022/04/06 11:52:25;;;;;;;8.93;6.73;;;11.80;99.90;;;;;;5005732;28;20506;-82
2022/04/06 11:54:53;;;;;;;11.20;6.70;;;11.90;1.00;;;;;;5004911;28;20426;-82
2022/04/06 11:57:20;;;;;;;8.80;6.70;;;11.90;1.00;;;;;;5009701;28;20488;-80
2022/04/06 11:59:54;;;;;;;11.67;7.00;;;11.80;1.00;;;;;;5008756;28;20503;-80
2022/04/06 12:02:35;;;;;;;12.43;7.80;;;;;;;;;;5003627;28;20436;-81
2022/04/06 12:05:05;;;;;;;10.00;7.50;;;11.80;1.00;;;;;;5003861;28;20416;-80
2022/04/06 12:07:32;;;;;;;7.37;6.67;;;11.80;99.90;;;;;;5001722;28;20475;-80
2022/04/06 12:09:59;;;;;;;12.50;6.43;;;11.80;1.00;;;;;;5000917;28;20461;-80
2022/04/06 12:12:26;;;;;;;9.23;7.30;;;11.80;99.90;;;;;;5001585;28;20505;-80
2022/04/06 12:14:53;;;;;;;9.37;6.63;;;11.80;99.90;;;;;;5001660;28;20464;-80
2022/04/06 12:17:21;;;;;;;8.87;7.40;;;11.80;1.00;;;;;;5005712;28;20488;-81
2022/04/06 12:19:47;;;;;;;11.83;6.80;;;11.90;99.90;;;;;;5009676;28;20452;-81
2022/04/06 12:22:16;;;;;;;8.43;6.50;;;11.70;99.90;;;;;;5007050;28;20448;-81
2022/04/06 12:24:44;;;;;;;11.67;7.27;;;11.80;99.90;;;;;;5003437;28;20547;-80
2022/04/06 12:27:11;;;;;;;10.40;7.40;;;11.90;1.00;;;;;;5006458;28;20467;-79
2022/04/06 12:29:39;;;;;;;13.33;9.13;;;11.90;1.00;;;;;;5003927;28;20444;-80
2022/04/06 12:32:08;;;;;;;7.73;5.50;;;12.00;1.00;;;;;;5005710;28;20493;-80
2022/04/06 12:34:35;;;;;;;6.00;5.23;;;11.90;1.00;;;;;;5003968;28;20452;-80
2022/04/06 12:39:50;;;;;;;7.40;6.00;;;11.90;99.90;;;;;;5002310;28;20433;-81
2022/04/06 12:42:18;;;;;;;10.43;6.30;;;11.90;99.90;;;;;;5000054;28;20543;-82
2022/04/06 12:44:56;;;;;;;11.87;6.50;;;11.90;99.90;;;;;;5000017;28;20427;-80
2022/04/06 12:47:46;;;;;;;9.40;5.97;;;11.90;1.00;;;;;;5001347;28;20555;-82
2022/04/06 12:50:19;;;;;;;12.10;6.60;;;11.90;99.90;;;;;;4999805;28;20451;-80
2022/04/06 12:52:47;;;;;;;8.33;6.23;;;12.00;1.00;;;;;;5000699;28;20432;-81
2022/04/06 12:55:16;;;;;;;9.80;6.33;;;11.80;1.00;;;;;;5000897;28;20445;-82
2022/04/06 12:57:42;;;;;;;8.43;6.40;;;11.80;1.00;;;;;;5002939;28;20463;-81
2022/04/06 13:00:11;;;;;;;9.67;6.37;;;11.80;1.00;;;;;;5001304;28;20452;-80
2022/04/06 13:02:48;;;;;;;9.13;6.97;;;11.90;1.00;;;;;;5000688;28;20432;-81
2022/04/06 13:05:17;;;;;;;7.43;6.10;;;11.90;99.90;;;;;;4999547;28;20989;-80
2022/04/06 13:07:45;;;;;;;8.10;6.87;;;12.00;1.00;;;;;;5004827;28;20991;-79
2022/04/06 13:10:13;;;;;;;11.37;6.57;;;12.20;99.90;;;;;;5009816;28;20430;-80
2022/04/06 13:12:44;;;;;;;9.30;6.67;;;12.40;1.00;;;;;;5009202;28;20449;-80
2022/04/06 13:15:13;;;;;;;7.43;5.47;;;12.80;99.90;;;;;;5002987;28;20472;-82
2022/04/06 13:17:40;;;;;;;8.83;5.60;;;12.80;99.90;;;;;;5007497;28;20519;-80
2022/04/06 13:20:09;;;;;;;11.33;6.67;;;12.70;99.90;;;;;;5004912;28;20975;-81
2022/04/06 13:22:37;;;;;;;9.00;6.40;;;12.70;99.90;;;;;;5001068;28;20453;-81
2022/04/06 13:25:05;;;;;;;9.00;6.30;;;12.70;99.90;;;;;;5000824;28;20444;-80
2022/04/06 13:27:32;;;;;;;8.20;6.67;;;12.70;99.90;;;;;;5004571;28;20443;-80
2022/04/06 13:30:00;;;;;;;10.33;6.53;;;12.60;99.90;;;;;;5006009;28;20448;-81
2022/04/06 13:32:27;;;;;;;6.20;5.57;;;12.60;99.90;;;;;;5002760;28;20453;-80
2022/04/06 13:34:54;;;;;;;6.10;5.50;;;12.50;99.90;;;;;;4999729;28;20819;-81
2022/04/06 13:37:21;;;;;;;7.00;5.93;;;12.40;99.90;;;;;;4999465;28;20539;-81
2022/04/06 13:39:47;;;;;;;6.83;5.20;;;12.30;99.90;;;;;;5001552;28;20456;-81
2022/04/06 13:42:16;;;;;;;7.40;5.20;;;12.20;99.90;;;;;;5005751;28;20448;-80
2022/04/06 13:45:06;;;;;;;5.60;5.10;;;12.10;99.90;;;;;;5001611;28;20947;-82
2022/04/06 13:47:34;;;;;;;10.23;5.60;;;12.20;99.90;;;;;;4996722;28;20476;-80
2022/04/06 13:50:00;;;;;;;6.80;5.43;;;12.10;99.90;;;;;;5000155;28;20468;-81
2022/04/06 13:52:27;;;;;;;7.73;6.60;;;12.20;99.90;;;;;;5001837;28;20480;-80
2022/04/06 13:54:56;;;;;;;6.60;5.60;;;12.20;99.90;;;;;;5003065;28;20499;-80
2022/04/06 13:57:24;;;;;;;8.03;6.17;;;12.20;99.90;;;;;;5004546;28;20545;-80
2022/04/06 13:59:50;;;;;;;8.53;5.83;;;12.30;99.90;;;;;;5010554;28;20456;-81
2022/04/06 14:02:17;;;;;;;7.17;6.53;;;12.30;99.90;;;;;;5011663;28;20427;-80
2022/04/06 14:04:45;;;;;;;6.23;4.73;;;12.30;99.90;;;;;;5013684;28;20438;-80
2022/04/06 14:07:11;;;;;;;11.30;5.40;;;12.20;99.90;;;;;;5013275;28;20468;-81
2022/04/06 14:09:38;;;;;;;5.73;5.13;;;12.20;99.90;;;;;;5014315;28;20440;-81